LGAD/PYR METAR and TAF weather

Enter ICAO airport designator
Station Type Date Time Source
LGAD METAR 2019/02/20 17:20 UTC NOAA

LGAD 201720Z 00000KT CAVOK 10/06 Q1021


Station Type Date Time Source
LGAD Decoded METAR 2019/02/20 17:20 UTC NOAA

Andravida Airport , Greece (LGAD) 37-55N 021-17E 14M
Feb 20, 2019 - 12:20 PM EST / 2019.02.20 1720 UTC
Wind: Calm:0
Visibility: greater than 7 mile(s):0
Temperature: 50 F (10 C)
Dew Point: 42 F (6 C)
Relative Humidity: 76%
Pressure (altimeter): 30.15 in. Hg (1021 hPa)
ob: LGAD 201720Z 00000KT CAVOK 10/06 Q1021
cycle: 17

Station Type Date Time Source
LGAD TAF 2011/03/20 15:06 UTC NOAA

TAF TAF LGAD 201400Z 2015/2103 06010KT 9999 FEW020 BKN080 PROB40
TEMPO 2015/2021 6000 RA SCT020 BKN080 PROB30
TEMPO 2015/2021 4000 TSRA FEW018CB SCT025 BKN080


Example: see airport list